Time,TemperatureF,DewpointF,PressureIn,WindDirection,WindDirectionDegrees,WindSpeedMPH,WindSpeedGustMPH,Humidity,HourlyPrecipIn,Conditions,Clouds,dailyrainin,SolarRadiationWatts/m^2,SoftwareType,DateUTC
2013-12-02 00:01:00,32.3,29.7,30.02,South,173,0.0,0.0,90,0.00,CLR,,0.00,0.0,WeatherDisplay:10.37,2013-12-02 05:01:00,
2013-12-02 00:02:00,32.3,29.7,30.02,South,172,0.0,0.0,90,0.00,CLR,,0.00,0.0,WeatherDisplay:10.37,2013-12-02 05:02:00,
2013-12-02 00:03:00,32.3,29.7,30.02,South,173,0.0,0.0,90,0.00,CLR,,0.00,0.0,WeatherDisplay:10.37,2013-12-02 05:03:00,
2013-12-02 00:04:00,32.3,29.7,30.02,South,173,0.0,0.0,90,0.00,CLR,,0.00,0.0,WeatherDisplay:10.37,2013-12-02 05:04:00,
2013-12-02 00:09:00,32.3,29.7,30.01,South,173,0.0,0.0,90,0.00,CLR,,0.00,0.0,WeatherDisplay:10.37,2013-12-02 05:09:00,
2013-12-02 00:14:00,32.2,29.6,30.01,South,173,0.0,0.0,90,0.00,CLR,,0.00,0.0,WeatherDisplay:10.37,2013-12-02 05:14:00,
2013-12-02 00:19:00,32.2,29.6,30.01,South,173,0.0,0.0,90,0.00,CLR,,0.00,0.0,WeatherDisplay:10.37,2013-12-02 05:19:00,
2013-12-02 00:24:00,32.2,29.6,30.01,South,172,0.0,0.0,90,0.00,CLR,,0.00,0.0,WeatherDisplay:10.37,2013-12-02 05:24:00,
2013-12-02 00:29:00,32.2,29.6,30.01,South,172,0.0,0.0,90,0.00,CLR,,0.00,0.0,WeatherDisplay:10.37,2013-12-02 05:29:00,
2013-12-02 00:34:00,32.2,29.6,30.01,South,173,0.0,0.0,90,0.00,CLR,,0.00,0.0,WeatherDisplay:10.37,2013-12-02 05:34:00,
2013-12-02 00:39:00,32.2,30.1,30.01,South,173,0.0,0.0,92,0.00,CLR,,0.00,0.0,WeatherDisplay:10.37,2013-12-02 05:39:00,
2013-12-02 00:44:00,32.1,30.0,30.01,South,172,0.0,0.0,92,0.00,CLR,,0.00,0.0,WeatherDisplay:10.37,2013-12-02 05:44:00,
2013-12-02 00:49:00,32.1,30.0,30.01,South,172,0.0,0.0,92,0.00,CLR,,0.00,0.0,WeatherDisplay:10.37,2013-12-02 05:49:00,
2013-12-02 00:54:00,32.1,30.0,30.00,South,173,0.0,0.0,92,0.00,CLR,,0.00,0.0,WeatherDisplay:10.37,2013-12-02 05:54:00,
2013-12-02 00:59:00,32.0,29.9,30.00,South,173,0.0,0.0,92,0.00,CLR,,0.00,0.0,WeatherDisplay:10.37,2013-12-02 05:59:00,
2013-12-02 01:04:00,32.0,29.9,30.00,South,173,0.0,0.0,92,0.00,FEW,,0.00,0.0,WeatherDisplay:10.37,2013-12-02 06:04:00,
2013-12-02 01:09:00,32.0,29.9,30.00,South,173,0.0,0.0,92,0.00,FEW,,0.00,0.0,WeatherDisplay:10.37,2013-12-02 06:09:00,
2013-12-02 01:14:00,31.9,29.8,30.00,South,173,0.0,0.0,92,0.00,FEW,,0.00,0.0,WeatherDisplay:10.37,2013-12-02 06:14:00,
2013-12-02 01:19:00,31.8,29.7,30.00,South,173,0.0,0.0,92,0.00,FEW,,0.00,0.0,WeatherDisplay:10.37,2013-12-02 06:19:00,
2013-12-02 01:24:00,31.8,29.7,30.00,South,172,0.0,0.0,92,0.00,FEW,,0.00,0.0,WeatherDisplay:10.37,2013-12-02 06:24:00,
2013-12-02 01:29:00,31.7,29.6,30.00,South,173,0.0,0.0,92,0.00,FEW,,0.00,0.0,WeatherDisplay:10.37,2013-12-02 06:29:00,
2013-12-02 01:34:00,31.6,29.5,30.00,South,173,0.0,0.0,92,0.00,FEW,,0.00,0.0,WeatherDisplay:10.37,2013-12-02 06:34:00,
2013-12-02 01:39:00,31.5,29.4,30.00,South,173,0.0,0.0,92,0.00,FEW,,0.00,0.0,WeatherDisplay:10.37,2013-12-02 06:39:00,
2013-12-02 01:44:00,31.5,29.4,30.00,South,172,0.0,0.0,92,0.00,FEW,,0.00,0.0,WeatherDisplay:10.37,2013-12-02 06:44:00,
2013-12-02 01:49:00,31.4,29.3,30.00,South,173,0.0,0.0,92,0.00,FEW,,0.00,0.0,WeatherDisplay:10.37,2013-12-02 06:49:00,
2013-12-02 01:54:00,31.3,29.2,29.99,South,173,0.0,0.0,92,0.00,FEW,,0.00,0.0,WeatherDisplay:10.37,2013-12-02 06:54:00,
2013-12-02 01:59:00,31.3,29.2,29.99,South,173,0.0,0.0,92,0.00,FEW,,0.00,0.0,WeatherDisplay:10.37,2013-12-02 06:59:00,
2013-12-02 02:04:00,31.2,29.4,29.99,South,173,0.0,0.0,93,0.00,FEW,,0.00,0.0,WeatherDisplay:10.37,2013-12-02 07:04:00,
2013-12-02 02:09:00,31.1,29.0,29.99,South,173,0.0,0.0,92,0.00,FEW,,0.00,0.0,WeatherDisplay:10.37,2013-12-02 07:09:00,
2013-12-02 02:14:00,31.1,29.0,29.99,South,173,0.0,0.0,92,0.00,FEW,,0.00,0.0,WeatherDisplay:10.37,2013-12-02 07:14:00,
2013-12-02 02:19:00,31.0,29.2,29.99,South,172,0.0,0.0,93,0.00,FEW,,0.00,0.0,WeatherDisplay:10.37,2013-12-02 07:19:00,
2013-12-02 02:24:00,30.9,29.1,29.99,South,173,0.0,0.0,93,0.00,FEW,,0.00,0.0,WeatherDisplay:10.37,2013-12-02 07:24:00,
2013-12-02 02:29:00,30.8,29.0,29.99,South,172,0.0,0.0,93,0.00,FEW,,0.00,0.0,WeatherDisplay:10.37,2013-12-02 07:29:00,
2013-12-02 02:34:00,30.8,29.0,29.99,South,173,0.0,0.0,93,0.00,FEW,,0.00,0.0,WeatherDisplay:10.37,2013-12-02 07:34:00,
2013-12-02 02:39:00,30.6,28.6,29.99,South,172,0.0,0.0,92,0.00,FEW,,0.00,0.0,WeatherDisplay:10.37,2013-12-02 07:39:00,
2013-12-02 02:44:00,30.6,28.6,29.99,South,173,0.0,0.0,92,0.00,FEW,,0.00,0.0,WeatherDisplay:10.37,2013-12-02 07:44:00,
2013-12-02 02:49:00,30.5,28.5,29.98,South,173,0.0,0.0,92,0.00,FEW,,0.00,0.0,WeatherDisplay:10.37,2013-12-02 07:49:00,
2013-12-02 02:54:00,30.4,28.6,29.98,South,173,0.0,0.0,93,0.00,FEW,,0.00,0.0,WeatherDisplay:10.37,2013-12-02 07:54:00,
2013-12-02 02:59:00,30.3,28.5,29.98,South,173,0.0,0.0,93,0.00,FEW,,0.00,0.0,WeatherDisplay:10.37,2013-12-02 07:59:00,
2013-12-02 03:04:00,30.3,28.5,29.98,South,173,0.0,0.0,93,0.00,FEW,,0.00,0.0,WeatherDisplay:10.37,2013-12-02 08:04:00,
2013-12-02 03:09:00,30.2,28.4,29.98,South,173,0.0,0.0,93,0.00,FEW,,0.00,0.0,WeatherDisplay:10.37,2013-12-02 08:09:00,
2013-12-02 03:14:00,30.1,28.3,29.98,South,173,0.0,0.0,93,0.00,FEW,,0.00,0.0,WeatherDisplay:10.37,2013-12-02 08:14:00,
2013-12-02 03:19:00,30.1,28.3,29.98,South,173,0.0,0.0,93,0.00,FEW,,0.00,0.0,WeatherDisplay:10.37,2013-12-02 08:19:00,
2013-12-02 03:24:00,30.0,28.2,29.97,South,173,0.0,0.0,93,0.00,FEW,,0.00,0.0,WeatherDisplay:10.37,2013-12-02 08:24:00,
2013-12-02 03:29:00,30.0,28.2,29.97,South,172,0.0,0.0,93,0.00,FEW,,0.00,0.0,WeatherDisplay:10.37,2013-12-02 08:29:00,
2013-12-02 03:34:00,30.0,28.2,29.97,South,173,0.0,0.0,93,0.00,FEW,,0.00,0.0,WeatherDisplay:10.37,2013-12-02 08:34:00,
2013-12-02 03:39:00,29.9,28.1,29.97,South,173,0.0,0.0,93,0.00,FEW,,0.00,0.0,WeatherDisplay:10.37,2013-12-02 08:39:00,
2013-12-02 03:44:00,29.9,28.1,29.97,South,173,0.0,0.0,93,0.00,FEW,,0.00,0.0,WeatherDisplay:10.37,2013-12-02 08:44:00,
2013-12-02 03:49:00,29.8,28.0,29.96,South,173,0.0,0.0,93,0.00,FEW,,0.00,0.0,WeatherDisplay:10.37,2013-12-02 08:49:00,
2013-12-02 03:54:00,29.7,27.9,29.96,South,173,0.0,0.0,93,0.00,FEW,,0.00,0.0,WeatherDisplay:10.37,2013-12-02 08:54:00,
2013-12-02 04:00:00,29.7,27.9,29.96,South,173,0.0,0.0,93,0.00,FEW,,0.00,0.0,WeatherDisplay:10.37,2013-12-02 09:00:00,
2013-12-02 04:05:00,29.6,27.8,29.95,South,173,0.0,0.0,93,0.00,FEW,,0.00,0.0,WeatherDisplay:10.37,2013-12-02 09:05:00,
2013-12-02 04:10:00,29.6,27.8,29.96,South,173,0.0,0.0,93,0.00,FEW,,0.00,0.0,WeatherDisplay:10.37,2013-12-02 09:10:00,
2013-12-02 04:15:00,29.6,27.8,29.96,South,173,0.0,0.0,93,0.00,FEW,,0.00,0.0,WeatherDisplay:10.37,2013-12-02 09:15:00,
2013-12-02 04:20:00,29.5,27.7,29.95,South,173,0.0,0.0,93,0.00,FEW,,0.00,0.0,WeatherDisplay:10.37,2013-12-02 09:20:00,
2013-12-02 04:25:00,29.5,27.7,29.95,South,173,0.0,0.0,93,0.00,FEW,,0.00,0.0,WeatherDisplay:10.37,2013-12-02 09:25:00,
2013-12-02 04:30:00,29.5,27.7,29.95,South,173,0.0,0.0,93,0.00,FEW,,0.00,0.0,WeatherDisplay:10.37,2013-12-02 09:30:00,
2013-12-02 04:35:00,29.4,27.6,29.95,South,173,0.0,0.0,93,0.00,FEW,,0.00,0.0,WeatherDisplay:10.37,2013-12-02 09:35:00,
2013-12-02 04:40:00,29.4,27.6,29.95,South,172,0.0,0.0,93,0.00,FEW,,0.00,0.0,WeatherDisplay:10.37,2013-12-02 09:40:00,
2013-12-02 04:45:00,29.4,27.6,29.95,South,173,0.0,0.0,93,0.00,CLR,,0.00,0.0,WeatherDisplay:10.37,2013-12-02 09:45:00,
2013-12-02 04:50:00,29.3,27.5,29.95,South,173,0.0,0.0,93,0.00,FEW,,0.00,0.0,WeatherDisplay:10.37,2013-12-02 09:50:00,
2013-12-02 04:55:00,29.3,27.8,29.95,South,173,0.0,0.0,94,0.00,FEW,,0.00,0.0,WeatherDisplay:10.37,2013-12-02 09:55:00,
2013-12-02 05:00:00,29.4,27.9,29.95,South,173,0.0,0.0,94,0.00,FEW,,0.00,0.0,WeatherDisplay:10.37,2013-12-02 10:00:00,
2013-12-02 05:05:00,29.3,27.8,29.95,South,173,0.0,0.0,94,0.00,CLR,,0.00,0.0,WeatherDisplay:10.37,2013-12-02 10:05:00,
2013-12-02 05:10:00,29.3,27.8,29.95,South,173,0.0,0.0,94,0.00,CLR,,0.00,0.0,WeatherDisplay:10.37,2013-12-02 10:10:00,
2013-12-02 05:15:00,29.3,27.8,29.95,South,172,0.0,0.0,94,0.00,CLR,,0.00,0.0,WeatherDisplay:10.37,2013-12-02 10:15:00,
2013-12-02 05:20:00,29.3,27.8,29.95,South,172,0.0,0.0,94,0.00,CLR,,0.00,0.0,WeatherDisplay:10.37,2013-12-02 10:20:00,
2013-12-02 05:25:00,29.3,27.8,29.95,South,173,0.0,0.0,94,0.00,CLR,,0.00,0.0,WeatherDisplay:10.37,2013-12-02 10:25:00,
2013-12-02 05:30:00,29.2,27.7,29.95,South,173,0.0,0.0,94,0.00,CLR,,0.00,0.0,WeatherDisplay:10.37,2013-12-02 10:30:00,
2013-12-02 05:35:00,29.1,27.6,29.95,South,173,0.0,0.0,94,0.00,CLR,,0.00,0.0,WeatherDisplay:10.37,2013-12-02 10:35:00,
2013-12-02 05:40:00,29.1,27.6,29.95,South,172,0.0,0.0,94,0.00,CLR,,0.00,0.0,WeatherDisplay:10.37,2013-12-02 10:40:00,
2013-12-02 05:45:00,29.0,27.5,29.95,South,173,0.0,0.0,94,0.00,CLR,,0.00,0.0,WeatherDisplay:10.37,2013-12-02 10:45:00,
2013-12-02 05:50:00,29.0,27.2,29.95,South,173,0.0,0.0,93,0.00,CLR,,0.00,0.0,WeatherDisplay:10.37,2013-12-02 10:50:00,
2013-12-02 05:55:00,28.9,27.1,29.94,South,173,0.0,0.0,93,0.00,CLR,,0.00,0.0,WeatherDisplay:10.37,2013-12-02 10:55:00,
2013-12-02 06:00:00,28.8,27.0,29.94,South,173,0.0,0.0,93,0.00,CLR,,0.00,0.0,WeatherDisplay:10.37,2013-12-02 11:00:00,
2013-12-02 06:05:00,28.7,27.2,29.94,South,173,0.0,0.0,94,0.00,CLR,,0.00,0.0,WeatherDisplay:10.37,2013-12-02 11:05:00,
2013-12-02 06:10:00,28.6,27.1,29.94,South,173,0.0,0.0,94,0.00,CLR,,0.00,0.0,WeatherDisplay:10.37,2013-12-02 11:10:00,
2013-12-02 06:15:00,28.6,26.8,29.94,South,172,0.0,0.0,93,0.00,CLR,,0.00,0.0,WeatherDisplay:10.37,2013-12-02 11:15:00,
2013-12-02 06:20:00,28.5,27.0,29.94,South,173,0.0,0.0,94,0.00,CLR,,0.00,0.0,WeatherDisplay:10.37,2013-12-02 11:20:00,
2013-12-02 06:25:00,28.5,27.0,29.95,South,173,0.0,0.0,94,0.00,CLR,,0.00,0.0,WeatherDisplay:10.37,2013-12-02 11:25:00,
2013-12-02 06:30:00,28.4,26.9,29.94,South,173,0.0,0.0,94,0.00,CLR,,0.00,0.0,WeatherDisplay:10.37,2013-12-02 11:30:00,
2013-12-02 06:35:00,28.4,26.9,29.94,South,173,0.0,0.0,94,0.00,CLR,,0.00,0.0,WeatherDisplay:10.37,2013-12-02 11:35:00,
2013-12-02 06:40:00,28.4,26.9,29.94,South,173,0.0,0.0,94,0.00,CLR,,0.00,0.0,WeatherDisplay:10.37,2013-12-02 11:40:00,
2013-12-02 06:45:00,28.3,26.8,29.94,South,173,0.0,0.0,94,0.00,CLR,,0.00,0.0,WeatherDisplay:10.37,2013-12-02 11:45:00,
2013-12-02 06:50:00,28.3,26.8,29.94,South,173,0.0,0.0,94,0.00,CLR,,0.00,0.0,WeatherDisplay:10.37,2013-12-02 11:50:00,
2013-12-02 06:55:00,28.2,26.7,29.94,South,173,0.0,0.0,94,0.00,CLR,,0.00,0.0,WeatherDisplay:10.37,2013-12-02 11:55:00,
2013-12-02 07:00:00,28.2,26.7,29.94,South,173,0.0,0.0,94,0.00,CLR,,0.00,0.0,WeatherDisplay:10.37,2013-12-02 12:00:00,
2013-12-02 07:05:00,28.2,26.7,29.94,South,172,0.0,0.0,94,0.00,CLR,,0.00,0.0,WeatherDisplay:10.37,2013-12-02 12:05:00,
2013-12-02 07:10:00,28.2,26.7,29.94,South,172,0.0,0.0,94,0.00,CLR,,0.00,5.0,WeatherDisplay:10.37,2013-12-02 12:10:00,
2013-12-02 07:15:00,28.2,26.7,29.94,South,173,0.0,0.0,94,0.00,CLR,,0.00,5.0,WeatherDisplay:10.37,2013-12-02 12:15:00,
2013-12-02 07:20:00,28.2,26.7,29.94,South,173,0.0,0.0,94,0.00,CLR,,0.00,7.0,WeatherDisplay:10.37,2013-12-02 12:20:00,
2013-12-02 07:25:00,28.2,26.7,29.94,South,172,0.0,0.0,94,0.00,CLR,,0.00,9.0,WeatherDisplay:10.37,2013-12-02 12:25:00,
2013-12-02 07:30:00,28.2,26.7,29.95,South,173,0.0,0.0,94,0.00,CLR,,0.00,11.0,WeatherDisplay:10.37,2013-12-02 12:30:00,
2013-12-02 07:35:00,28.2,26.7,29.95,South,173,0.0,0.0,94,0.00,CLR,,0.00,12.0,WeatherDisplay:10.37,2013-12-02 12:35:00,
2013-12-02 07:40:00,28.2,26.7,29.94,South,173,0.0,0.0,94,0.00,CLR,,0.00,14.0,WeatherDisplay:10.37,2013-12-02 12:40:00,
2013-12-02 07:45:00,28.3,26.8,29.95,South,173,0.0,0.0,94,0.00,CLR,,0.00,16.0,WeatherDisplay:10.37,2013-12-02 12:45:00,
2013-12-02 07:50:00,28.3,26.8,29.95,South,173,0.0,0.0,94,0.00,CLR,,0.00,18.0,WeatherDisplay:10.37,2013-12-02 12:50:00,
2013-12-02 07:55:00,28.4,26.9,29.95,South,173,0.0,0.0,94,0.00,CLR,,0.00,19.0,WeatherDisplay:10.37,2013-12-02 12:55:00,
2013-12-02 08:00:00,28.5,27.0,29.95,South,173,0.0,0.0,94,0.00,FEW,,0.00,21.0,WeatherDisplay:10.37,2013-12-02 13:00:00,
2013-12-02 08:05:00,28.6,27.1,29.95,South,172,0.0,0.0,94,0.00,FEW,,0.00,23.0,WeatherDisplay:10.37,2013-12-02 13:05:00,
2013-12-02 08:10:00,28.7,27.7,29.95,South,173,0.0,0.0,96,0.00,FEW,,0.00,25.0,WeatherDisplay:10.37,2013-12-02 13:10:00,
2013-12-02 08:15:00,28.9,27.9,29.96,South,173,0.0,0.0,96,0.00,FEW,,0.00,25.0,WeatherDisplay:10.37,2013-12-02 13:15:00,
2013-12-02 08:20:00,29.1,28.1,29.96,South,173,0.0,0.0,96,0.00,FEW,,0.00,26.0,WeatherDisplay:10.37,2013-12-02 13:20:00,
2013-12-02 08:25:00,29.3,28.3,29.96,South,173,0.0,0.0,96,0.00,FEW,,0.00,28.0,WeatherDisplay:10.37,2013-12-02 13:25:00,
2013-12-02 08:30:00,29.5,28.5,29.96,South,173,0.0,0.0,96,0.00,FEW,,0.00,30.0,WeatherDisplay:10.37,2013-12-02 13:30:00,
2013-12-02 08:35:00,29.9,28.9,29.96,South,173,0.0,0.0,96,0.00,FEW,,0.00,32.0,WeatherDisplay:10.37,2013-12-02 13:35:00,
2013-12-02 08:40:00,30.4,29.4,29.96,South,173,0.0,0.0,96,0.00,FEW,,0.00,33.0,WeatherDisplay:10.37,2013-12-02 13:40:00,
2013-12-02 08:45:00,30.8,30.0,29.96,South,173,0.0,0.0,97,0.00,FEW,,0.00,35.0,WeatherDisplay:10.37,2013-12-02 13:45:00,
2013-12-02 08:50:00,31.2,30.4,29.96,South,173,0.0,0.0,97,0.00,FEW,,0.00,35.0,WeatherDisplay:10.37,2013-12-02 13:50:00,
2013-12-02 08:55:00,31.8,31.0,29.95,South,173,0.0,0.0,97,0.00,FEW,,0.00,37.0,WeatherDisplay:10.37,2013-12-02 13:55:00,
2013-12-02 09:00:00,32.6,31.8,29.95,South,173,0.0,0.0,97,0.00,FEW,,0.00,39.0,WeatherDisplay:10.37,2013-12-02 14:00:00,
2013-12-02 09:05:00,33.5,33.2,29.95,South,173,0.0,0.0,99,0.00,FEW,,0.00,47.0,WeatherDisplay:10.37,2013-12-02 14:05:00,
2013-12-02 09:10:00,34.2,33.9,29.95,South,173,0.0,0.0,99,0.00,FEW,,0.00,39.0,WeatherDisplay:10.37,2013-12-02 14:10:00,
2013-12-02 09:15:00,35.1,34.8,29.95,SSE,157,0.0,0.0,99,0.00,FEW,,0.00,47.0,WeatherDisplay:10.37,2013-12-02 14:15:00,
2013-12-02 09:20:00,35.8,35.5,29.95,SSE,157,0.0,0.0,99,0.00,FEW,,0.00,40.0,WeatherDisplay:10.37,2013-12-02 14:20:00,
2013-12-02 09:25:00,36.5,36.2,29.95,SSE,157,0.0,0.0,99,0.00,FEW,,0.00,42.0,WeatherDisplay:10.37,2013-12-02 14:25:00,
2013-12-02 09:30:00,37.1,36.8,29.95,SSE,157,0.0,0.0,99,0.00,FEW,,0.00,42.0,WeatherDisplay:10.37,2013-12-02 14:30:00,
2013-12-02 09:35:00,37.7,37.4,29.95,SSE,157,0.0,0.0,99,0.00,FEW,,0.00,42.0,WeatherDisplay:10.37,2013-12-02 14:35:00,
2013-12-02 09:40:00,38.2,37.9,29.95,ESE,102,0.0,0.0,99,0.00,FEW,,0.00,44.0,WeatherDisplay:10.37,2013-12-02 14:40:00,
2013-12-02 09:45:00,38.8,38.5,29.95,ESE,102,0.0,0.0,99,0.00,FEW,,0.00,44.0,WeatherDisplay:10.37,2013-12-02 14:45:00,
2013-12-02 09:50:00,39.5,38.7,29.95,ESE,102,0.0,0.0,97,0.00,FEW,,0.00,46.0,WeatherDisplay:10.37,2013-12-02 14:50:00,
2013-12-02 09:55:00,40.4,38.8,29.95,ESE,102,0.0,0.0,94,0.00,FEW,,0.00,46.0,WeatherDisplay:10.37,2013-12-02 14:55:00,
2013-12-02 10:00:00,41.5,38.5,29.95,ESE,103,0.5,2.3,89,0.00,FEW,,0.00,54.0,WeatherDisplay:10.37,2013-12-02 15:00:00,
2013-12-02 10:05:00,42.7,37.6,29.95,ESE,109,0.0,2.3,82,0.00,FEW,,0.00,54.0,WeatherDisplay:10.37,2013-12-02 15:05:00,
2013-12-02 10:10:00,43.7,37.6,29.95,ESE,109,0.0,1.1,79,0.00,FEW,,0.00,51.0,WeatherDisplay:10.37,2013-12-02 15:10:00,
2013-12-02 10:15:00,44.5,37.1,29.95,ESE,107,0.0,0.0,75,0.00,FEW,,0.00,56.0,WeatherDisplay:10.37,2013-12-02 15:15:00,
2013-12-02 10:20:00,45.4,35.5,29.95,ESE,107,0.0,0.0,68,0.00,FEW,,0.00,169.0,WeatherDisplay:10.37,2013-12-02 15:20:00,
2013-12-02 10:25:00,46.4,35.3,29.94,ESE,115,0.0,0.0,65,0.00,FEW,,0.00,192.0,WeatherDisplay:10.37,2013-12-02 15:25:00,
2013-12-02 10:30:00,47.5,34.3,29.94,SE,129,0.0,1.1,60,0.00,FEW,,0.00,432.0,WeatherDisplay:10.37,2013-12-02 15:30:00,
2013-12-02 10:35:00,48.8,33.3,29.94,ESE,123,0.0,0.0,55,0.00,FEW,,0.00,441.0,WeatherDisplay:10.37,2013-12-02 15:35:00,
2013-12-02 10:40:00,49.8,34.7,29.94,ESE,123,0.0,0.0,56,0.00,FEW,,0.00,446.0,WeatherDisplay:10.37,2013-12-02 15:40:00,
2013-12-02 10:45:00,50.8,34.7,29.93,SE,132,0.0,0.0,54,0.00,FEW,,0.00,392.0,WeatherDisplay:10.37,2013-12-02 15:45:00,
2013-12-02 10:50:00,51.6,33.0,29.93,ESE,114,0.0,0.0,49,0.00,FEW,,0.00,461.0,WeatherDisplay:10.37,2013-12-02 15:50:00,
2013-12-02 10:55:00,52.5,33.4,29.93,ESE,115,0.0,0.0,48,0.00,FEW,,0.00,448.0,WeatherDisplay:10.37,2013-12-02 15:55:00,
2013-12-02 11:00:00,53.5,35.8,29.92,ESE,108,0.0,0.0,51,0.00,FEW,,0.00,469.0,WeatherDisplay:10.37,2013-12-02 16:00:00,
2013-12-02 11:06:00,53.9,34.6,29.92,SSE,159,0.0,0.0,48,0.00,FEW,,0.00,466.0,WeatherDisplay:10.37,2013-12-02 16:06:00,
2013-12-02 11:11:00,54.5,35.2,29.92,SSE,159,0.0,0.0,48,0.00,FEW,,0.00,478.0,WeatherDisplay:10.37,2013-12-02 16:11:00,
2013-12-02 11:16:00,54.4,33.5,29.92,SSE,159,0.0,0.0,45,0.00,FEW,,0.00,482.0,WeatherDisplay:10.37,2013-12-02 16:16:00,
2013-12-02 11:21:00,54.5,34.7,29.92,SSE,148,0.7,1.0,47,0.00,FEW,,0.00,485.0,WeatherDisplay:10.37,2013-12-02 16:21:00,
2013-12-02 11:26:00,54.4,33.5,29.92,South,186,0.0,0.0,45,0.00,FEW,,0.00,490.0,WeatherDisplay:10.37,2013-12-02 16:26:00,
2013-12-02 11:31:00,54.4,32.9,29.91,SSW,202,0.0,3.5,44,0.00,FEW,,0.00,492.0,WeatherDisplay:10.37,2013-12-02 16:31:00,
2013-12-02 11:36:00,55.2,34.2,29.91,SSW,202,0.0,0.0,45,0.00,FEW,,0.00,497.0,WeatherDisplay:10.37,2013-12-02 16:36:00,
2013-12-02 11:41:00,55.0,32.9,29.91,SSW,202,0.0,0.0,43,0.00,FEW,,0.00,475.0,WeatherDisplay:10.37,2013-12-02 16:41:00,
2013-12-02 11:46:00,55.7,35.2,29.90,SSE,157,0.0,0.0,46,0.00,FEW,,0.00,503.0,WeatherDisplay:10.37,2013-12-02 16:46:00,
2013-12-02 11:51:00,56.8,36.2,29.90,East,96,0.0,3.5,46,0.00,FEW,,0.00,503.0,WeatherDisplay:10.37,2013-12-02 16:51:00,
2013-12-02 11:56:00,56.4,36.4,29.90,South,178,0.0,0.0,47,0.00,FEW,,0.00,404.0,WeatherDisplay:10.37,2013-12-02 16:56:00,
2013-12-02 12:01:00,56.6,35.5,29.90,South,172,0.0,0.0,45,0.00,FEW,,0.00,420.0,WeatherDisplay:10.37,2013-12-02 17:01:00,
2013-12-02 12:06:00,56.5,33.7,29.89,South,169,0.0,0.0,42,0.00,SCT,,0.00,499.0,WeatherDisplay:10.37,2013-12-02 17:06:00,
2013-12-02 12:11:00,57.0,34.7,29.89,NW,319,0.0,0.0,43,0.00,SCT,,0.00,501.0,WeatherDisplay:10.37,2013-12-02 17:11:00,
2013-12-02 12:16:00,56.8,34.5,29.89,NW,319,0.0,0.0,43,0.00,SCT,,0.00,501.0,WeatherDisplay:10.37,2013-12-02 17:16:00,
2013-12-02 12:21:00,56.5,34.3,29.89,SSW,213,0.0,0.0,43,0.00,SCT,,0.00,431.0,WeatherDisplay:10.37,2013-12-02 17:21:00,
2013-12-02 12:26:00,56.0,33.8,29.88,SSW,213,0.0,0.0,43,0.00,SCT,,0.00,418.0,WeatherDisplay:10.37,2013-12-02 17:26:00,
2013-12-02 12:31:00,56.7,35.0,29.88,South,187,0.0,0.0,44,0.00,SCT,,0.00,264.0,WeatherDisplay:10.37,2013-12-02 17:31:00,
2013-12-02 12:36:00,56.8,35.1,29.88,SSE,164,0.0,0.0,44,0.00,SCT,,0.00,74.0,WeatherDisplay:10.37,2013-12-02 17:36:00,
2013-12-02 12:41:00,56.9,36.3,29.88,SE,145,2.5,4.0,46,0.00,SCT,,0.00,346.0,WeatherDisplay:10.37,2013-12-02 17:41:00,
2013-12-02 12:46:00,56.7,35.6,29.88,SE,129,0.5,3.5,45,0.00,SCT,,0.00,100.0,WeatherDisplay:10.37,2013-12-02 17:46:00,
2013-12-02 12:51:00,56.7,34.4,29.88,South,179,3.2,4.6,43,0.00,SCT,,0.00,362.0,WeatherDisplay:10.37,2013-12-02 17:51:00,
2013-12-02 12:56:00,56.7,35.0,29.88,NE,53,1.7,5.8,44,0.00,SCT,,0.00,244.0,WeatherDisplay:10.37,2013-12-02 17:56:00,
2013-12-02 13:01:00,56.8,36.2,29.88,ESE,117,0.2,2.3,46,0.00,SCT,,0.00,255.0,WeatherDisplay:10.37,2013-12-02 18:01:00,
2013-12-02 13:06:00,56.9,35.2,29.88,SE,137,1.3,5.8,44,0.00,SCT,,0.00,241.0,WeatherDisplay:10.37,2013-12-02 18:06:00,
2013-12-02 13:11:00,57.1,34.8,29.88,SSE,166,0.0,0.0,43,0.00,SCT,,0.00,230.0,WeatherDisplay:10.37,2013-12-02 18:11:00,
2013-12-02 13:16:00,57.2,34.9,29.87,SSW,210,0.1,1.1,43,0.00,SCT,,0.00,211.0,WeatherDisplay:10.37,2013-12-02 18:16:00,
2013-12-02 13:21:00,57.2,34.9,29.87,SE,130,1.9,3.5,43,0.00,SCT,,0.00,193.0,WeatherDisplay:10.37,2013-12-02 18:21:00,
2013-12-02 13:26:00,57.0,35.9,29.87,SE,134,0.0,0.0,45,0.00,SCT,,0.00,209.0,WeatherDisplay:10.37,2013-12-02 18:26:00,
2013-12-02 13:31:00,56.9,35.2,29.87,South,175,0.1,1.1,44,0.00,SCT,,0.00,213.0,WeatherDisplay:10.37,2013-12-02 18:31:00,
2013-12-02 13:36:00,57.0,34.1,29.87,SSE,149,0.0,0.0,42,0.00,SCT,,0.00,183.0,WeatherDisplay:10.37,2013-12-02 18:36:00,
2013-12-02 13:41:00,56.9,34.0,29.86,SSW,198,1.3,6.0,42,0.00,SCT,,0.00,162.0,WeatherDisplay:10.37,2013-12-02 18:41:00,
2013-12-02 13:46:00,56.7,33.8,29.86,SSW,192,0.0,0.0,42,0.00,SCT,,0.00,169.0,WeatherDisplay:10.37,2013-12-02 18:46:00,
2013-12-02 13:51:00,56.9,34.0,29.86,SE,141,0.0,0.0,42,0.00,SCT,,0.00,163.0,WeatherDisplay:10.37,2013-12-02 18:51:00,
2013-12-02 13:56:00,56.9,35.2,29.87,SSE,150,0.0,0.0,44,0.00,SCT,,0.00,183.0,WeatherDisplay:10.37,2013-12-02 18:56:00,
2013-12-02 14:01:00,57.0,34.7,29.86,SE,140,0.0,0.0,43,0.00,SCT,,0.00,199.0,WeatherDisplay:10.37,2013-12-02 19:01:00,
2013-12-02 14:06:00,56.9,33.4,29.86,SSW,193,0.0,0.0,41,0.00,SCT,,0.00,128.0,WeatherDisplay:10.37,2013-12-02 19:06:00,
2013-12-02 14:11:00,56.8,33.3,29.86,SE,126,0.0,0.0,41,0.00,SCT,,0.00,120.0,WeatherDisplay:10.37,2013-12-02 19:11:00,
2013-12-02 14:16:00,56.7,33.8,29.86,East,81,0.0,0.0,42,0.00,SCT,,0.00,102.0,WeatherDisplay:10.37,2013-12-02 19:16:00,
2013-12-02 14:21:00,56.5,34.8,29.85,NE,42,0.7,2.3,44,0.00,SCT,,0.00,70.0,WeatherDisplay:10.37,2013-12-02 19:21:00,
2013-12-02 14:26:00,56.5,33.7,29.85,East,100,0.1,1.1,42,0.00,SCT,,0.00,60.0,WeatherDisplay:10.37,2013-12-02 19:26:00,
2013-12-02 14:31:00,56.5,33.7,29.86,East,98,0.0,1.1,42,0.00,SCT,,0.00,98.0,WeatherDisplay:10.37,2013-12-02 19:31:00,
2013-12-02 14:36:00,56.6,33.8,29.86,ESE,107,0.0,0.0,42,0.00,SCT,,0.00,76.0,WeatherDisplay:10.37,2013-12-02 19:36:00,
2013-12-02 14:41:00,56.6,34.9,29.86,ESE,107,0.0,0.0,44,0.00,SCT,,0.00,67.0,WeatherDisplay:10.37,2013-12-02 19:41:00,
2013-12-02 14:46:00,56.7,35.0,29.86,NNE,26,1.0,2.3,44,0.00,SCT,,0.00,202.0,WeatherDisplay:10.37,2013-12-02 19:46:00,
2013-12-02 14:51:00,56.9,34.6,29.86,NNE,26,0.0,0.0,43,0.00,SCT,,0.00,234.0,WeatherDisplay:10.37,2013-12-02 19:51:00,
2013-12-02 14:56:00,57.1,34.2,29.86,NE,52,0.0,0.0,42,0.00,SCT,,0.00,188.0,WeatherDisplay:10.37,2013-12-02 19:56:00,
2013-12-02 15:01:00,57.5,35.2,29.86,NE,52,0.0,0.0,43,0.00,BKN,,0.00,104.0,WeatherDisplay:10.37,2013-12-02 20:01:00,
2013-12-02 15:06:00,58.1,34.5,29.86,NE,52,0.0,0.0,41,0.00,BKN,,0.00,232.0,WeatherDisplay:10.37,2013-12-02 20:06:00,
2013-12-02 15:11:00,58.4,34.2,29.86,NE,52,0.0,0.0,40,0.00,BKN,,0.00,116.0,WeatherDisplay:10.37,2013-12-02 20:11:00,
2013-12-02 15:16:00,58.4,34.2,29.86,NE,52,0.0,0.0,40,0.00,BKN,,0.00,111.0,WeatherDisplay:10.37,2013-12-02 20:16:00,
2013-12-02 15:21:00,58.4,37.1,29.86,NE,52,0.0,0.0,45,0.00,BKN,,0.00,70.0,WeatherDisplay:10.37,2013-12-02 20:21:00,
2013-12-02 15:26:00,58.1,35.1,29.86,NE,52,0.0,0.0,42,0.00,BKN,,0.00,62.0,WeatherDisplay:10.37,2013-12-02 20:26:00,
2013-12-02 15:31:00,57.9,35.5,29.86,NE,52,0.0,0.0,43,0.00,BKN,,0.00,58.0,WeatherDisplay:10.37,2013-12-02 20:31:00,
2013-12-02 15:36:00,57.5,35.2,29.86,NE,52,0.0,0.0,43,0.00,BKN,,0.00,54.0,WeatherDisplay:10.37,2013-12-02 20:36:00,
2013-12-02 15:41:00,57.1,35.4,29.86,NE,52,0.0,0.0,44,0.00,BKN,,0.00,51.0,WeatherDisplay:10.37,2013-12-02 20:41:00,
2013-12-02 15:46:00,56.8,35.7,29.86,NE,52,0.0,0.0,45,0.00,BKN,,0.00,49.0,WeatherDisplay:10.37,2013-12-02 20:46:00,
2013-12-02 15:51:00,56.4,36.4,29.86,NE,52,0.0,0.0,47,0.00,BKN,,0.00,42.0,WeatherDisplay:10.37,2013-12-02 20:51:00,
2013-12-02 15:56:00,56.1,36.1,29.86,NE,52,0.0,0.0,47,0.00,BKN,,0.00,33.0,WeatherDisplay:10.37,2013-12-02 20:56:00,
2013-12-02 16:01:00,55.8,36.4,29.86,NE,52,0.0,0.0,48,0.00,SCT,,0.00,32.0,WeatherDisplay:10.37,2013-12-02 21:01:00,
2013-12-02 16:06:00,55.4,36.5,29.86,NE,52,0.0,0.0,49,0.00,SCT,,0.00,26.0,WeatherDisplay:10.37,2013-12-02 21:06:00,
2013-12-02 16:11:00,55.1,36.8,29.86,NE,52,0.0,0.0,50,0.00,SCT,,0.00,23.0,WeatherDisplay:10.37,2013-12-02 21:11:00,
2013-12-02 16:16:00,54.8,36.5,29.85,NE,52,0.0,0.0,50,0.00,SCT,,0.00,21.0,WeatherDisplay:10.37,2013-12-02 21:16:00,
2013-12-02 16:21:00,54.5,36.2,29.86,NE,52,0.0,0.0,50,0.00,SCT,,0.00,16.0,WeatherDisplay:10.37,2013-12-02 21:21:00,
2013-12-02 16:26:00,54.2,36.5,29.85,NE,52,0.0,0.0,51,0.00,SCT,,0.00,12.0,WeatherDisplay:10.37,2013-12-02 21:26:00,
2013-12-02 16:31:00,53.9,36.2,29.86,NE,52,0.0,0.0,51,0.00,SCT,,0.00,11.0,WeatherDisplay:10.37,2013-12-02 21:31:00,
2013-12-02 16:36:00,53.5,35.8,29.85,NE,52,0.0,0.0,51,0.00,SCT,,0.00,9.0,WeatherDisplay:10.37,2013-12-02 21:36:00,
2013-12-02 16:41:00,53.3,35.6,29.85,NE,52,0.0,0.0,51,0.00,SCT,,0.00,7.0,WeatherDisplay:10.37,2013-12-02 21:41:00,
2013-12-02 16:46:00,52.9,36.2,29.85,NE,52,0.0,0.0,53,0.00,SCT,,0.00,5.0,WeatherDisplay:10.37,2013-12-02 21:46:00,
2013-12-02 16:51:00,52.6,35.9,29.85,NE,52,0.0,0.0,53,0.00,SCT,,0.00,0.0,WeatherDisplay:10.37,2013-12-02 21:51:00,
2013-12-02 16:56:00,52.4,36.2,29.85,NE,52,0.0,0.0,54,0.00,SCT,,0.00,0.0,WeatherDisplay:10.37,2013-12-02 21:56:00,
2013-12-02 17:01:00,52.0,36.3,29.86,NE,52,0.0,0.0,55,0.00,SCT,,0.00,0.0,WeatherDisplay:10.37,2013-12-02 22:01:00,
2013-12-02 17:06:00,51.7,36.0,29.86,NE,52,0.0,0.0,55,0.00,SCT,,0.00,0.0,WeatherDisplay:10.37,2013-12-02 22:06:00,
2013-12-02 17:11:00,51.4,36.2,29.85,NE,52,0.0,0.0,56,0.00,SCT,,0.00,0.0,WeatherDisplay:10.37,2013-12-02 22:11:00,
2013-12-02 17:16:00,51.2,36.0,29.86,NE,52,0.0,0.0,56,0.00,SCT,,0.00,0.0,WeatherDisplay:10.37,2013-12-02 22:16:00,
2013-12-02 17:21:00,50.9,36.2,29.85,NE,52,0.0,0.0,57,0.00,SCT,,0.00,0.0,WeatherDisplay:10.37,2013-12-02 22:21:00,
2013-12-02 17:26:00,50.7,36.5,29.85,NE,52,0.0,0.0,58,0.00,SCT,,0.00,0.0,WeatherDisplay:10.37,2013-12-02 22:26:00,
2013-12-02 17:31:00,50.4,36.6,29.85,NE,52,0.0,0.0,59,0.00,SCT,,0.00,0.0,WeatherDisplay:10.37,2013-12-02 22:31:00,
2013-12-02 17:36:00,50.2,36.4,29.85,NE,52,0.0,0.0,59,0.00,SCT,,0.00,0.0,WeatherDisplay:10.37,2013-12-02 22:36:00,
2013-12-02 17:41:00,50.0,35.8,29.85,NE,52,0.0,0.0,58,0.00,SCT,,0.00,0.0,WeatherDisplay:10.37,2013-12-02 22:41:00,
2013-12-02 17:46:00,49.8,36.0,29.85,NE,52,0.0,0.0,59,0.00,SCT,,0.00,0.0,WeatherDisplay:10.37,2013-12-02 22:46:00,
2013-12-02 17:51:00,49.6,36.3,29.85,NE,52,0.0,0.0,60,0.00,SCT,,0.00,0.0,WeatherDisplay:10.37,2013-12-02 22:51:00,
2013-12-02 17:56:00,49.5,37.0,29.85,NE,52,0.0,0.0,62,0.00,SCT,,0.00,0.0,WeatherDisplay:10.37,2013-12-02 22:56:00,
2013-12-02 18:01:00,49.3,36.8,29.85,NE,52,0.0,0.0,62,0.00,SCT,,0.00,0.0,WeatherDisplay:10.37,2013-12-02 23:01:00,
2013-12-02 18:06:00,49.1,36.6,29.85,NE,52,0.0,0.0,62,0.00,SCT,,0.00,0.0,WeatherDisplay:10.37,2013-12-02 23:06:00,
2013-12-02 18:11:00,48.9,36.9,29.85,NE,52,0.0,0.0,63,0.00,SCT,,0.00,0.0,WeatherDisplay:10.37,2013-12-02 23:11:00,
2013-12-02 18:16:00,48.7,36.3,29.86,NE,52,0.0,0.0,62,0.00,SCT,,0.00,0.0,WeatherDisplay:10.37,2013-12-02 23:16:00,
2013-12-02 18:21:00,48.6,36.6,29.86,NE,52,0.0,0.0,63,0.00,SCT,,0.00,0.0,WeatherDisplay:10.37,2013-12-02 23:21:00,
2013-12-02 18:26:00,48.4,36.8,29.86,NE,52,0.0,0.0,64,0.00,SCT,,0.00,0.0,WeatherDisplay:10.37,2013-12-02 23:26:00,
2013-12-02 18:31:00,48.2,36.6,29.86,NE,52,0.0,0.0,64,0.00,SCT,,0.00,0.0,WeatherDisplay:10.37,2013-12-02 23:31:00,
2013-12-02 18:36:00,48.1,36.9,29.86,NE,52,0.0,0.0,65,0.00,SCT,,0.00,0.0,WeatherDisplay:10.37,2013-12-02 23:36:00,
2013-12-02 18:41:00,48.0,37.2,29.86,NE,52,0.0,0.0,66,0.00,SCT,,0.00,0.0,WeatherDisplay:10.37,2013-12-02 23:41:00,
2013-12-02 18:46:00,47.8,37.0,29.86,NE,52,0.0,0.0,66,0.00,SCT,,0.00,0.0,WeatherDisplay:10.37,2013-12-02 23:46:00,
2013-12-02 18:51:00,47.7,37.7,29.86,NE,52,0.0,0.0,68,0.00,SCT,,0.00,0.0,WeatherDisplay:10.37,2013-12-02 23:51:00,
2013-12-02 18:56:00,47.6,37.6,29.86,NE,52,0.0,0.0,68,0.00,SCT,,0.00,0.0,WeatherDisplay:10.37,2013-12-02 23:56:00,
2013-12-02 19:01:00,47.4,37.7,29.85,NE,52,0.0,0.0,69,0.00,SCT,,0.00,0.0,WeatherDisplay:10.37,2013-12-03 00:01:00,
2013-12-02 19:06:00,47.3,37.6,29.86,NE,52,0.0,0.0,69,0.00,SCT,,0.00,0.0,WeatherDisplay:10.37,2013-12-03 00:06:00,
2013-12-02 19:11:00,47.2,37.2,29.86,NE,52,0.0,0.0,68,0.00,SCT,,0.00,0.0,WeatherDisplay:10.37,2013-12-03 00:11:00,
2013-12-02 19:16:00,47.1,37.4,29.86,NE,52,0.0,0.0,69,0.00,SCT,,0.00,0.0,WeatherDisplay:10.37,2013-12-03 00:16:00,
2013-12-02 19:21:00,47.0,37.4,29.86,NE,52,0.0,0.0,69,0.00,SCT,,0.00,0.0,WeatherDisplay:10.37,2013-12-03 00:21:00,
2013-12-02 19:26:00,46.9,37.3,29.86,NE,52,0.0,0.0,69,0.00,SCT,,0.00,0.0,WeatherDisplay:10.37,2013-12-03 00:26:00,
2013-12-02 19:31:00,46.8,37.9,29.86,NE,52,0.0,0.0,71,0.00,SCT,,0.00,0.0,WeatherDisplay:10.37,2013-12-03 00:31:00,
2013-12-02 19:36:00,46.7,37.8,29.87,NE,52,0.0,0.0,71,0.00,SCT,,0.00,0.0,WeatherDisplay:10.37,2013-12-03 00:36:00,
2013-12-02 19:41:00,46.6,38.1,29.87,NE,52,0.0,0.0,72,0.00,SCT,,0.00,0.0,WeatherDisplay:10.37,2013-12-03 00:41:00,
2013-12-02 19:46:00,46.6,38.1,29.87,NE,52,0.0,0.0,72,0.00,SCT,,0.00,0.0,WeatherDisplay:10.37,2013-12-03 00:46:00,
2013-12-02 19:51:00,46.6,38.1,29.87,NE,52,0.0,0.0,72,0.00,SCT,,0.00,0.0,WeatherDisplay:10.37,2013-12-03 00:51:00,
2013-12-02 19:56:00,46.5,38.0,29.87,NE,52,0.0,0.0,72,0.00,SCT,,0.00,0.0,WeatherDisplay:10.37,2013-12-03 00:56:00,
2013-12-02 20:01:00,46.5,38.7,29.87,NE,52,0.0,0.0,74,0.00,SCT,,0.00,0.0,WeatherDisplay:10.37,2013-12-03 01:01:00,
2013-12-02 20:06:00,46.4,38.9,29.87,NE,52,0.0,0.0,75,0.00,SCT,,0.00,0.0,WeatherDisplay:10.37,2013-12-03 01:06:00,
2013-12-02 20:11:00,46.3,38.5,29.86,NE,52,0.0,0.0,74,0.00,SCT,,0.00,0.0,WeatherDisplay:10.37,2013-12-03 01:11:00,
2013-12-02 20:16:00,46.2,38.7,29.86,NE,52,0.0,0.0,75,0.00,SCT,,0.00,0.0,WeatherDisplay:10.37,2013-12-03 01:16:00,
2013-12-02 20:21:00,46.1,38.6,29.87,NE,52,0.0,0.0,75,0.00,SCT,,0.00,0.0,WeatherDisplay:10.37,2013-12-03 01:21:00,
2013-12-02 20:26:00,46.0,38.5,29.87,NE,52,0.0,0.0,75,0.00,SCT,,0.00,0.0,WeatherDisplay:10.37,2013-12-03 01:26:00,
2013-12-02 20:31:00,45.8,38.3,29.87,NE,52,0.0,0.0,75,0.00,SCT,,0.00,0.0,WeatherDisplay:10.37,2013-12-03 01:31:00,
2013-12-02 20:36:00,45.6,38.1,29.87,NE,52,0.0,0.0,75,0.00,SCT,,0.00,0.0,WeatherDisplay:10.37,2013-12-03 01:36:00,
2013-12-02 20:41:00,45.3,37.8,29.87,NE,52,0.0,0.0,75,0.00,SCT,,0.00,0.0,WeatherDisplay:10.37,2013-12-03 01:41:00,
2013-12-02 20:46:00,45.0,37.6,29.87,NE,52,0.0,0.0,75,0.00,SCT,,0.00,0.0,WeatherDisplay:10.37,2013-12-03 01:46:00,
2013-12-02 20:51:00,44.6,37.5,29.87,NE,52,0.0,0.0,76,0.00,SCT,,0.00,0.0,WeatherDisplay:10.37,2013-12-03 01:51:00,
2013-12-02 20:56:00,44.3,37.2,29.87,NE,52,0.0,0.0,76,0.00,SCT,,0.00,0.0,WeatherDisplay:10.37,2013-12-03 01:56:00,
2013-12-02 21:01:00,43.9,36.8,29.87,NE,52,0.0,0.0,76,0.00,SCT,,0.00,0.0,WeatherDisplay:10.37,2013-12-03 02:01:00,
2013-12-02 21:06:00,43.5,36.8,29.87,NE,52,0.0,0.0,77,0.00,SCT,,0.00,0.0,WeatherDisplay:10.37,2013-12-03 02:06:00,
2013-12-02 21:11:00,43.2,36.5,29.87,NE,52,0.0,0.0,77,0.00,SCT,,0.00,0.0,WeatherDisplay:10.37,2013-12-03 02:11:00,
2013-12-02 21:16:00,42.9,36.2,29.87,NE,52,0.0,0.0,77,0.00,SCT,,0.00,0.0,WeatherDisplay:10.37,2013-12-03 02:16:00,
2013-12-02 21:21:00,42.5,36.4,29.87,NE,52,0.0,0.0,79,0.00,SCT,,0.00,0.0,WeatherDisplay:10.37,2013-12-03 02:21:00,
2013-12-02 21:26:00,42.2,36.2,29.88,NE,52,0.0,0.0,79,0.00,SCT,,0.00,0.0,WeatherDisplay:10.37,2013-12-03 02:26:00,
2013-12-02 21:31:00,41.9,35.9,29.87,NE,52,0.0,0.0,79,0.00,SCT,,0.00,0.0,WeatherDisplay:10.37,2013-12-03 02:31:00,
2013-12-02 21:36:00,41.6,35.9,29.87,NE,52,0.0,0.0,80,0.00,SCT,,0.00,0.0,WeatherDisplay:10.37,2013-12-03 02:36:00,
2013-12-02 21:41:00,41.2,35.5,29.87,NE,52,0.0,0.0,80,0.00,SCT,,0.00,0.0,WeatherDisplay:10.37,2013-12-03 02:41:00,
2013-12-02 21:46:00,40.9,35.2,29.87,NE,52,0.0,0.0,80,0.00,SCT,,0.00,0.0,WeatherDisplay:10.37,2013-12-03 02:46:00,
2013-12-02 21:51:00,40.6,35.2,29.87,NE,52,0.0,0.0,81,0.00,SCT,,0.00,0.0,WeatherDisplay:10.37,2013-12-03 02:51:00,
2013-12-02 21:56:00,40.3,34.9,29.87,NE,52,0.0,0.0,81,0.00,SCT,,0.00,0.0,WeatherDisplay:10.37,2013-12-03 02:56:00,
2013-12-02 22:01:00,40.0,34.9,29.87,NE,52,0.0,0.0,82,0.00,SCT,,0.00,0.0,WeatherDisplay:10.37,2013-12-03 03:01:00,
2013-12-02 22:06:00,39.8,34.8,29.87,NE,52,0.0,0.0,82,0.00,SCT,,0.00,0.0,WeatherDisplay:10.37,2013-12-03 03:06:00,
2013-12-02 22:11:00,39.5,34.5,29.87,NE,52,0.0,0.0,82,0.00,SCT,,0.00,0.0,WeatherDisplay:10.37,2013-12-03 03:11:00,
2013-12-02 22:16:00,39.3,34.9,29.87,NE,52,0.0,0.0,84,0.00,SCT,,0.00,0.0,WeatherDisplay:10.37,2013-12-03 03:16:00,
2013-12-02 22:21:00,39.1,35.0,29.87,NE,52,0.0,0.0,85,0.00,SCT,,0.00,0.0,WeatherDisplay:10.37,2013-12-03 03:21:00,
2013-12-02 22:26:00,38.9,34.8,29.87,NE,52,0.0,0.0,85,0.00,SCT,,0.00,0.0,WeatherDisplay:10.37,2013-12-03 03:26:00,
2013-12-02 22:31:00,38.7,34.6,29.87,NE,52,0.0,0.0,85,0.00,SCT,,0.00,0.0,WeatherDisplay:10.37,2013-12-03 03:31:00,
2013-12-02 22:36:00,38.5,34.4,29.87,NE,52,0.0,0.0,85,0.00,SCT,,0.00,0.0,WeatherDisplay:10.37,2013-12-03 03:36:00,
2013-12-02 22:41:00,38.3,34.5,29.87,NE,52,0.0,0.0,86,0.00,SCT,,0.00,0.0,WeatherDisplay:10.37,2013-12-03 03:41:00,
2013-12-02 22:46:00,38.1,34.0,29.88,NE,52,0.0,0.0,85,0.00,SCT,,0.00,0.0,WeatherDisplay:10.37,2013-12-03 03:46:00,
2013-12-02 22:51:00,37.9,34.1,29.88,NE,52,0.0,0.0,86,0.00,SCT,,0.00,0.0,WeatherDisplay:10.37,2013-12-03 03:51:00,
2013-12-02 22:56:00,37.7,33.9,29.88,NE,52,0.0,0.0,86,0.00,SCT,,0.00,0.0,WeatherDisplay:10.37,2013-12-03 03:56:00,
2013-12-02 23:01:00,37.6,34.4,29.88,NE,52,0.0,0.0,88,0.00,SCT,,0.00,0.0,WeatherDisplay:10.37,2013-12-03 04:01:00,
2013-12-02 23:06:00,37.4,34.2,29.88,NE,52,0.0,0.0,88,0.00,SCT,,0.00,0.0,WeatherDisplay:10.37,2013-12-03 04:06:00,
2013-12-02 23:11:00,37.3,34.1,29.87,NE,52,0.0,0.0,88,0.00,SCT,,0.00,0.0,WeatherDisplay:10.37,2013-12-03 04:11:00,
2013-12-02 23:16:00,37.1,33.9,29.88,NE,52,0.0,0.0,88,0.00,SCT,,0.00,0.0,WeatherDisplay:10.37,2013-12-03 04:16:00,
2013-12-02 23:21:00,37.0,33.8,29.88,NE,52,0.0,0.0,88,0.00,SCT,,0.00,0.0,WeatherDisplay:10.37,2013-12-03 04:21:00,
2013-12-02 23:26:00,36.9,34.0,29.88,NE,52,0.0,0.0,89,0.00,SCT,,0.00,0.0,WeatherDisplay:10.37,2013-12-03 04:26:00,
2013-12-02 23:31:00,36.8,33.9,29.88,NE,52,0.0,0.0,89,0.00,SCT,,0.00,0.0,WeatherDisplay:10.37,2013-12-03 04:31:00,
2013-12-02 23:36:00,36.8,34.1,29.88,NE,52,0.0,0.0,90,0.00,SCT,,0.00,0.0,WeatherDisplay:10.37,2013-12-03 04:36:00,
2013-12-02 23:41:00,36.8,34.1,29.88,NE,52,0.0,0.0,90,0.00,SCT,,0.00,0.0,WeatherDisplay:10.37,2013-12-03 04:41:00,
2013-12-02 23:46:00,36.7,34.0,29.88,NE,52,0.0,0.0,90,0.00,SCT,,0.00,0.0,WeatherDisplay:10.37,2013-12-03 04:46:00,
2013-12-02 23:51:00,36.7,34.0,29.88,NE,52,0.0,0.0,90,0.00,SCT,,0.00,0.0,WeatherDisplay:10.37,2013-12-03 04:51:00,
2013-12-02 23:56:00,36.6,33.9,29.88,NE,52,0.0,0.0,90,0.00,SCT,,0.00,0.0,WeatherDisplay:10.37,2013-12-03 04:56:00,